Time,TemperatureF,DewpointF,PressureIn,WindDirection,WindDirectionDegrees,WindSpeedMPH,WindSpeedGustMPH,Humidity,HourlyPrecipIn,Conditions,Clouds,dailyrainin,SoftwareType,DateUTC
2013-02-25 00:07:00,23.8,21.0,30.14,NNW,333,0.0,-999.0,88,-99.99,,,0.01,weatherlink.com 1.10,2013-02-25 05:07:00,
2013-02-25 00:22:00,24.1,21.0,30.14,NNW,333,0.0,-999.0,89,-99.99,,,0.01,weatherlink.com 1.10,2013-02-25 05:22:00,
2013-02-25 00:37:00,25.0,22.0,30.14,NNW,333,0.0,-999.0,89,-99.99,,,0.01,weatherlink.com 1.10,2013-02-25 05:37:00,
2013-02-25 00:52:00,25.6,23.0,30.14,NNW,333,0.0,-999.0,89,-99.99,,,0.00,weatherlink.com 1.10,2013-02-25 05:52:00,
2013-02-25 01:07:00,26.2,23.0,30.15,NNW,333,0.0,-999.0,88,-99.99,,,0.00,weatherlink.com 1.10,2013-02-25 06:07:00,
2013-02-25 01:22:00,26.0,23.0,30.15,NNW,333,1.0,-999.0,88,-99.99,,,0.00,weatherlink.com 1.10,2013-02-25 06:22:00,
2013-02-25 01:37:00,26.7,24.0,30.15,NW,305,0.0,-999.0,88,-99.99,,,0.00,weatherlink.com 1.10,2013-02-25 06:37:00,
2013-02-25 01:52:00,26.8,24.0,30.15,NW,305,0.0,-999.0,87,-99.99,,,0.00,weatherlink.com 1.10,2013-02-25 06:52:00,
2013-02-25 02:07:00,26.2,23.0,30.16,NW,305,0.0,-999.0,87,-99.99,,,0.00,weatherlink.com 1.10,2013-02-25 07:07:00,
2013-02-25 02:22:00,26.4,24.0,30.16,NW,305,0.0,-999.0,89,-99.99,,,0.00,weatherlink.com 1.10,2013-02-25 07:22:00,
2013-02-25 02:37:00,26.3,23.0,30.16,NW,305,0.0,-999.0,88,-99.99,,,0.00,weatherlink.com 1.10,2013-02-25 07:37:00,
2013-02-25 02:52:00,26.1,23.0,30.16,NW,305,0.0,-999.0,88,-99.99,,,0.00,weatherlink.com 1.10,2013-02-25 07:52:00,
2013-02-25 03:07:00,25.5,23.0,30.16,NW,305,0.0,-999.0,88,-99.99,,,0.00,weatherlink.com 1.10,2013-02-25 08:07:00,
2013-02-25 03:22:00,24.6,22.0,30.15,NW,305,0.0,-999.0,88,-99.99,,,0.00,weatherlink.com 1.10,2013-02-25 08:22:00,
2013-02-25 03:37:00,23.5,21.0,30.15,NW,305,0.0,-999.0,89,-99.99,,,0.00,weatherlink.com 1.10,2013-02-25 08:37:00,
2013-02-25 03:52:00,22.6,20.0,30.15,NW,305,0.0,-999.0,89,-99.99,,,0.00,weatherlink.com 1.10,2013-02-25 08:52:00,
2013-02-25 04:07:00,22.5,20.0,30.15,NW,305,0.0,-999.0,91,-99.99,,,0.00,weatherlink.com 1.10,2013-02-25 09:07:00,
2013-02-25 04:22:00,22.1,20.0,30.15,NW,305,0.0,-999.0,91,-99.99,,,0.00,weatherlink.com 1.10,2013-02-25 09:22:00,
2013-02-25 04:37:00,21.6,19.0,30.15,NW,305,0.0,-999.0,91,-99.99,,,0.00,weatherlink.com 1.10,2013-02-25 09:37:00,
2013-02-25 04:52:00,20.8,19.0,30.15,NW,305,0.0,-999.0,91,-99.99,,,0.00,weatherlink.com 1.10,2013-02-25 09:52:00,
2013-02-25 05:07:00,20.3,18.0,30.15,NW,305,0.0,-999.0,92,-99.99,,,0.00,weatherlink.com 1.10,2013-02-25 10:07:00,
2013-02-25 05:22:00,19.8,18.0,30.15,NW,305,0.0,-999.0,92,-99.99,,,0.00,weatherlink.com 1.10,2013-02-25 10:22:00,
2013-02-25 05:37:00,20.0,18.0,30.15,NW,305,0.0,-999.0,93,-99.99,,,0.00,weatherlink.com 1.10,2013-02-25 10:37:00,
2013-02-25 05:52:00,19.3,17.0,30.15,NW,305,0.0,-999.0,92,-99.99,,,0.00,weatherlink.com 1.10,2013-02-25 10:52:00,
2013-02-25 06:07:00,18.8,17.0,30.16,NW,305,0.0,-999.0,92,-99.99,,,0.00,weatherlink.com 1.10,2013-02-25 11:07:00,
2013-02-25 06:22:00,18.7,17.0,30.17,NW,305,0.0,-999.0,93,-99.99,,,0.00,weatherlink.com 1.10,2013-02-25 11:22:00,
2013-02-25 06:37:00,18.5,17.0,30.18,NW,305,0.0,-999.0,92,-99.99,,,0.00,weatherlink.com 1.10,2013-02-25 11:37:00,
2013-02-25 06:52:00,18.4,17.0,30.19,NW,305,0.0,-999.0,92,-99.99,,,0.00,weatherlink.com 1.10,2013-02-25 11:52:00,
2013-02-25 07:07:00,18.8,17.0,30.19,NW,305,0.0,-999.0,93,-99.99,,,0.00,weatherlink.com 1.10,2013-02-25 12:07:00,
2013-02-25 07:23:00,19.0,17.0,30.19,NW,305,0.0,-999.0,93,-99.99,,,0.00,weatherlink.com 1.10,2013-02-25 12:23:00,
2013-02-25 07:38:00,18.9,17.0,30.19,NW,305,0.0,-999.0,93,-99.99,,,0.00,weatherlink.com 1.10,2013-02-25 12:38:00,
2013-02-25 07:53:00,19.4,18.0,30.20,NW,305,0.0,-999.0,93,-99.99,,,0.00,weatherlink.com 1.10,2013-02-25 12:53:00,
2013-02-25 08:08:00,20.0,18.0,30.20,NW,305,0.0,-999.0,93,-99.99,,,0.00,weatherlink.com 1.10,2013-02-25 13:08:00,
2013-02-25 08:23:00,20.9,19.0,30.21,NW,305,0.0,-999.0,93,-99.99,,,0.00,weatherlink.com 1.10,2013-02-25 13:23:00,
2013-02-25 08:38:00,23.0,22.0,30.21,NW,305,0.0,-999.0,95,-99.99,,,0.00,weatherlink.com 1.10,2013-02-25 13:38:00,
2013-02-25 08:53:00,25.8,25.0,30.22,NW,305,0.0,-999.0,95,-99.99,,,0.00,weatherlink.com 1.10,2013-02-25 13:53:00,
2013-02-25 09:08:00,28.2,27.0,30.22,NW,305,0.0,-999.0,94,-99.99,,,0.00,weatherlink.com 1.10,2013-02-25 14:08:00,
2013-02-25 09:23:00,30.3,28.0,30.22,NW,305,0.0,-999.0,90,-99.99,,,0.00,weatherlink.com 1.10,2013-02-25 14:23:00,
2013-02-25 09:38:00,30.8,27.0,30.21,NW,305,0.0,-999.0,86,-99.99,,,0.00,weatherlink.com 1.10,2013-02-25 14:38:00,
2013-02-25 09:53:00,32.4,28.0,30.20,SSE,150,1.0,-999.0,82,-99.99,,,0.00,weatherlink.com 1.10,2013-02-25 14:53:00,
2013-02-25 10:08:00,33.9,27.0,30.20,SE,135,1.0,-999.0,75,-99.99,,,0.00,weatherlink.com 1.10,2013-02-25 15:08:00,
2013-02-25 10:23:00,35.2,25.0,30.19,SSE,155,2.0,-999.0,67,-99.99,,,0.00,weatherlink.com 1.10,2013-02-25 15:23:00,
2013-02-25 10:38:00,35.8,25.0,30.19,East,93,0.0,-999.0,65,-99.99,,,0.00,weatherlink.com 1.10,2013-02-25 15:38:00,
2013-02-25 10:53:00,35.2,24.0,30.20,SSW,209,3.0,-999.0,65,-99.99,,,0.00,weatherlink.com 1.10,2013-02-25 15:53:00,
2013-02-25 11:08:00,35.4,23.0,30.19,WSW,252,3.0,-999.0,62,-99.99,,,0.00,weatherlink.com 1.10,2013-02-25 16:08:00,
2013-02-25 11:23:00,35.9,24.0,30.18,SW,236,3.0,-999.0,63,-99.99,,,0.00,weatherlink.com 1.10,2013-02-25 16:23:00,
2013-02-25 11:38:00,34.9,24.0,30.19,West,269,4.0,-999.0,64,-99.99,,,0.00,weatherlink.com 1.10,2013-02-25 16:38:00,
2013-02-25 11:53:00,36.4,24.0,30.19,SW,215,3.0,-999.0,61,-99.99,,,0.00,weatherlink.com 1.10,2013-02-25 16:53:00,
2013-02-25 12:08:00,35.9,23.0,30.20,SW,233,4.0,-999.0,61,-99.99,,,0.00,weatherlink.com 1.10,2013-02-25 17:08:00,
2013-02-25 12:23:00,37.0,24.0,30.19,NW,323,4.0,-999.0,60,-99.99,,,0.00,weatherlink.com 1.10,2013-02-25 17:23:00,
2013-02-25 12:38:00,36.5,24.0,30.19,WSW,238,2.0,-999.0,60,-99.99,,,0.00,weatherlink.com 1.10,2013-02-25 17:38:00,
2013-02-25 12:53:00,38.7,24.0,30.17,SSW,210,7.0,-999.0,57,-99.99,,,0.00,weatherlink.com 1.10,2013-02-25 17:53:00,
2013-02-25 13:08:00,38.4,24.0,30.17,WNW,303,8.0,-999.0,57,-99.99,,,0.00,weatherlink.com 1.10,2013-02-25 18:08:00,
2013-02-25 13:23:00,38.4,25.0,30.16,SW,233,5.0,-999.0,58,-99.99,,,0.00,weatherlink.com 1.10,2013-02-25 18:23:00,
2013-02-25 13:38:00,38.2,24.0,30.15,WSW,242,3.0,-999.0,58,-99.99,,,0.00,weatherlink.com 1.10,2013-02-25 18:38:00,
2013-02-25 13:53:00,38.5,25.0,30.15,SW,229,6.0,-999.0,58,-99.99,,,0.00,weatherlink.com 1.10,2013-02-25 18:53:00,
2013-02-25 14:08:00,38.3,25.0,30.14,West,269,2.0,-999.0,59,-99.99,,,0.00,weatherlink.com 1.10,2013-02-25 19:08:00,
2013-02-25 14:24:00,39.0,25.0,30.13,SW,218,4.0,-999.0,57,-99.99,,,0.00,weatherlink.com 1.10,2013-02-25 19:24:00,
2013-02-25 14:39:00,39.1,25.0,30.13,SSW,213,4.0,-999.0,58,-99.99,,,0.00,weatherlink.com 1.10,2013-02-25 19:39:00,
2013-02-25 14:54:00,39.6,25.0,30.13,SSW,213,1.0,-999.0,56,-99.99,,,0.00,weatherlink.com 1.10,2013-02-25 19:54:00,
2013-02-25 15:09:00,38.9,25.0,30.13,SSE,153,1.0,-999.0,58,-99.99,,,0.00,weatherlink.com 1.10,2013-02-25 20:09:00,
2013-02-25 15:24:00,38.9,25.0,30.13,WSW,249,3.0,-999.0,57,-99.99,,,0.00,weatherlink.com 1.10,2013-02-25 20:24:00,
2013-02-25 15:39:00,39.5,25.0,30.13,SW,235,7.0,-999.0,57,-99.99,,,0.00,weatherlink.com 1.10,2013-02-25 20:39:00,
2013-02-25 15:54:00,39.6,25.0,30.14,South,190,0.0,-999.0,56,-99.99,,,0.00,weatherlink.com 1.10,2013-02-25 20:54:00,
2013-02-25 16:09:00,39.1,25.0,30.13,SSW,206,4.0,-999.0,57,-99.99,,,0.00,weatherlink.com 1.10,2013-02-25 21:09:00,
2013-02-25 16:24:00,39.2,25.0,30.13,SW,218,3.0,-999.0,56,-99.99,,,0.00,weatherlink.com 1.10,2013-02-25 21:24:00,
2013-02-25 16:39:00,39.4,25.0,30.13,SW,231,4.0,-999.0,56,-99.99,,,0.00,weatherlink.com 1.10,2013-02-25 21:39:00,
2013-02-25 16:54:00,39.2,25.0,30.12,SSW,213,2.0,-999.0,56,-99.99,,,0.00,weatherlink.com 1.10,2013-02-25 21:54:00,
2013-02-25 17:09:00,39.2,25.0,30.11,SW,232,5.0,-999.0,56,-99.99,,,0.00,weatherlink.com 1.10,2013-02-25 22:09:00,
2013-02-25 17:24:00,38.9,25.0,30.10,SSW,202,3.0,-999.0,57,-99.99,,,0.00,weatherlink.com 1.10,2013-02-25 22:24:00,
2013-02-25 17:39:00,39.1,25.0,30.11,SE,142,2.0,-999.0,57,-99.99,,,0.00,weatherlink.com 1.10,2013-02-25 22:39:00,
2013-02-25 17:54:00,38.4,25.0,30.11,SSW,198,1.0,-999.0,58,-99.99,,,0.00,weatherlink.com 1.10,2013-02-25 22:54:00,
2013-02-25 18:09:00,38.1,24.0,30.11,South,191,0.0,-999.0,58,-99.99,,,0.00,weatherlink.com 1.10,2013-02-25 23:09:00,
2013-02-25 18:24:00,37.7,24.0,30.12,SSW,193,2.0,-999.0,59,-99.99,,,0.00,weatherlink.com 1.10,2013-02-25 23:24:00,
2013-02-25 18:39:00,37.3,24.0,30.12,SSW,193,0.0,-999.0,60,-99.99,,,0.00,weatherlink.com 1.10,2013-02-25 23:39:00,
2013-02-25 18:54:00,36.6,24.0,30.12,SSW,193,0.0,-999.0,61,-99.99,,,0.00,weatherlink.com 1.10,2013-02-25 23:54:00,
2013-02-25 19:09:00,35.6,24.0,30.12,SSW,193,0.0,-999.0,64,-99.99,,,0.00,weatherlink.com 1.10,2013-02-26 00:09:00,
2013-02-25 19:24:00,35.1,24.0,30.13,SSW,196,2.0,-999.0,65,-99.99,,,0.00,weatherlink.com 1.10,2013-02-26 00:24:00,
2013-02-25 19:39:00,34.8,24.0,30.13,SSW,212,2.0,-999.0,66,-99.99,,,0.00,weatherlink.com 1.10,2013-02-26 00:39:00,
2013-02-25 19:54:00,34.0,25.0,30.14,SW,227,3.0,-999.0,69,-99.99,,,0.00,weatherlink.com 1.10,2013-02-26 00:54:00,
2013-02-25 20:09:00,33.5,25.0,30.14,SSW,207,4.0,-999.0,70,-99.99,,,0.00,weatherlink.com 1.10,2013-02-26 01:09:00,
2013-02-25 20:24:00,33.3,25.0,30.13,South,183,1.0,-999.0,71,-99.99,,,0.00,weatherlink.com 1.10,2013-02-26 01:24:00,
2013-02-25 20:39:00,32.7,25.0,30.12,South,175,5.0,-999.0,73,-99.99,,,0.00,weatherlink.com 1.10,2013-02-26 01:39:00,
2013-02-25 20:54:00,32.1,25.0,30.11,South,182,2.0,-999.0,75,-99.99,,,0.00,weatherlink.com 1.10,2013-02-26 01:54:00,
2013-02-25 21:09:00,31.5,25.0,30.10,SSW,202,3.0,-999.0,77,-99.99,,,0.00,weatherlink.com 1.10,2013-02-26 02:09:00,
2013-02-25 21:24:00,31.1,25.0,30.10,South,172,2.0,-999.0,79,-99.99,,,0.00,weatherlink.com 1.10,2013-02-26 02:24:00,
2013-02-25 21:39:00,31.0,25.0,30.09,SSE,155,1.0,-999.0,79,-99.99,,,0.00,weatherlink.com 1.10,2013-02-26 02:39:00,
2013-02-25 21:54:00,30.7,25.0,30.08,SSE,164,0.0,-999.0,79,-99.99,,,0.00,weatherlink.com 1.10,2013-02-26 02:54:00,
2013-02-25 22:09:00,30.5,25.0,30.08,SE,145,2.0,-999.0,79,-99.99,,,0.00,weatherlink.com 1.10,2013-02-26 03:09:00,
2013-02-25 22:24:00,30.2,24.0,30.09,SSW,197,1.0,-999.0,79,-99.99,,,0.00,weatherlink.com 1.10,2013-02-26 03:24:00,
2013-02-25 22:39:00,30.0,24.0,30.10,SSE,157,2.0,-999.0,78,-99.99,,,0.00,weatherlink.com 1.10,2013-02-26 03:39:00,
2013-02-25 22:54:00,29.9,24.0,30.11,SSW,202,4.0,-999.0,77,-99.99,,,0.00,weatherlink.com 1.10,2013-02-26 03:54:00,
2013-02-25 23:09:00,30.0,23.0,30.11,SSE,159,2.0,-999.0,75,-99.99,,,0.00,weatherlink.com 1.10,2013-02-26 04:09:00,
2013-02-25 23:24:00,29.8,23.0,30.11,South,188,1.0,-999.0,75,-99.99,,,0.00,weatherlink.com 1.10,2013-02-26 04:24:00,
2013-02-25 23:39:00,29.7,23.0,30.11,SSW,196,4.0,-999.0,75,-99.99,,,0.00,weatherlink.com 1.10,2013-02-26 04:39:00,
2013-02-25 23:54:00,29.4,22.0,30.11,South,185,5.0,-999.0,75,-99.99,,,0.00,weatherlink.com 1.10,2013-02-26 04:54:00,